Terminal Aerodrome Forecast
Issued by NWS

Home | Current Version | Previous Version | Text Only | Print | Product List | Glossary On
Versions: 1 2 3 4 5 6 7 8 9 10 11 12
000
FTPA31 PHFO 302338
TAFHKO
TAF
PHKO 302338Z 3100/3124 22010KT P6SM FEW035 BKN070
     FM310400 16008KT P6SM FEW070
     FM310800 08005KT P6SM SKC
     FM312000 24008KT P6SM FEW035 SCT070=

USA.gov is the U.S. government's official web portal to all federal, state and local government web resources and services.